OISA  Abadeh  Airport

Abadeh, Iran

Add Bookmark
ICAO OISA
Type Airport
Status Operational
Latitude
31° 10' 0" N
31.166668
Longitude
52° 40' 0" E
52.666668
Local (GMT +3.5 ) UTC
Sep 29, 2016 01:36 pm Sep 29, 2016 10:06
Sunrise-Sunset Local UTC
Begin Civil Twilight 05:26 am 01:56
Sunrise 05:50 am 02:20
Sunset 05:47 pm 14:17
End Civil Twilight 06:12 pm 14:42
VFR
VFR
MVFR
MVFR
IFR
IFR
LIFR
LIFR
Unknown
Unavailable

Current Weather

METAR Observed VFR
OISA 290800Z 25006KT CAVOK 27/M15 Q1020 Thu, Sep 29, 2016 @ 08:00 UTC
(2 Hours, 6 Minutes ago)
Visual Flight Rules
Wind Visibility Conditions
250° at 6 knots (11 kph) 10 km or more
  • No significant weather
Temperatures Readings Precipitation
Current Temp
27°C
81°F
Dewpoint
-15°C
5°F
Humidity 5%
Altimeter 30.12" Hg
Sea Level Pressure 1,020 mb
Field Elevation
2,004 m
6,575 ft
None Recorded
-
-

CheckWX.com is intended as a tool to help pilots better visualize weather data. It is not intended as a substitute for an official weather briefing obtained from a Flight Service Station. CheckWX.com does not meet the FAA requirements for an official pre-flight weather briefing. Therefore, it's important that pilots still call and obtain an official FSS pre-flight weather briefing.

© 2007-2016 CheckWX.com
10:06:14 UTC